Time;durP1;ratioP1;P1;durP2;ratioP2;P2;SDS_P1;SDS_P2;PMS_P1;PMS_P2;Temp;Humidity;BMP_temperature;BMP_pressure;BME280_temperature;BME280_humidity;BME280_pressure;Samples;Min_cycle;Max_cycle;Signal;HPM_P1;HPM_P2
2021/07/14 00:00:10;;;;;;;19.00;17.20;;;20.50;99.90;;;;;;5229625;28;20225;-67
2021/07/14 00:02:42;;;;;;;18.65;17.05;;;20.40;99.90;;;;;;5230218;28;20197;-62
2021/07/14 00:05:18;;;;;;;20.05;18.35;;;20.50;99.90;;;;;;5236466;28;20205;-65
2021/07/14 00:07:51;;;;;;;19.30;17.48;;;20.50;99.90;;;;;;5242997;28;20279;-66
2021/07/14 00:10:31;;;;;;;17.92;16.35;;;20.40;99.90;;;;;;5235126;28;20213;-65
2021/07/14 00:24:11;;;;;;;20.88;18.80;;;20.30;99.90;;;;;;5249544;28;20212;-65
2021/07/14 00:26:46;;;;;;;20.90;18.90;;;20.30;99.90;;;;;;5233585;28;20194;-66
2021/07/14 00:29:18;;;;;;;20.17;18.17;;;20.20;99.90;;;;;;5242360;28;20189;-63
2021/07/14 00:31:50;;;;;;;19.15;17.33;;;20.10;99.90;;;;;;5235357;28;20189;-65
2021/07/14 00:34:22;;;;;;;18.77;17.05;;;20.00;99.90;;;;;;5234109;28;20611;-65
2021/07/14 00:36:55;;;;;;;18.80;17.00;;;19.90;99.90;;;;;;5249081;28;20197;-64
2021/07/14 00:39:27;;;;;;;18.17;16.58;;;19.90;99.90;;;;;;5248988;28;20231;-69
2021/07/14 00:41:59;;;;;;;18.10;16.50;;;19.90;99.90;;;;;;5249196;28;20236;-64
2021/07/14 00:44:32;;;;;;;18.33;16.63;;;19.90;99.90;;;;;;5250347;28;20231;-65
2021/07/14 00:47:08;;;;;;;17.27;15.70;;;19.80;99.90;;;;;;5249872;28;20193;-65
2021/07/14 00:49:40;;;;;;;20.13;18.23;;;19.80;99.90;;;;;;5249035;28;20200;-67
2021/07/14 00:52:12;;;;;;;20.25;18.38;;;19.80;99.90;;;;;;5248494;28;20215;-64
2021/07/14 00:54:45;;;;;;;19.60;17.85;;;19.80;99.90;;;;;;5248439;28;20224;-64
2021/07/14 00:57:21;;;;;;;20.40;18.55;;;19.70;99.90;;;;;;5249953;28;20253;-64
2021/07/14 00:59:53;;;;;;;19.85;18.05;;;19.70;99.90;;;;;;5248785;28;20517;-69
2021/07/14 01:02:28;;;;;;;18.23;16.52;;;19.70;99.90;;;;;;5249834;28;20204;-65
2021/07/14 01:05:05;;;;;;;17.52;15.90;;;19.60;99.90;;;;;;5249241;28;20313;-64
2021/07/14 01:07:53;;;;;;;18.08;16.48;;;19.60;99.90;;;;;;5249046;28;20208;-63
2021/07/14 01:10:40;;;;;;;18.27;16.42;;;19.60;99.90;;;;;;5250585;28;20623;-67
2021/07/14 01:13:36;;;;;;;18.08;16.48;;;19.60;99.90;;;;;;5250407;28;20208;-65
2021/07/14 01:16:19;;;;;;;17.50;15.90;;;19.60;99.90;;;;;;5250047;28;20767;-64
2021/07/14 01:19:34;;;;;;;17.60;16.00;;;19.50;99.90;;;;;;5250235;28;20236;-67
2021/07/14 01:22:22;;;;;;;17.15;15.57;;;19.50;99.90;;;;;;5248997;28;20374;-68
2021/07/14 01:25:06;;;;;;;17.23;15.73;;;19.50;99.90;;;;;;5248551;28;20209;-68
2021/07/14 01:27:42;;;;;;;18.15;16.48;;;19.50;99.90;;;;;;5249442;28;20232;-67
2021/07/14 01:30:15;;;;;;;18.55;16.85;;;19.50;99.90;;;;;;5249521;28;20670;-65
2021/07/14 01:32:48;;;;;;;20.08;18.13;;;19.50;99.90;;;;;;5249110;28;20247;-64
2021/07/14 01:35:34;;;;;;;18.77;17.13;;;19.50;99.90;;;;;;5249109;28;20220;-67
2021/07/14 01:38:08;;;;;;;18.90;17.30;;;19.40;99.90;;;;;;5249425;28;20200;-68
2021/07/14 01:40:41;;;;;;;18.33;16.63;;;19.30;99.90;;;;;;5248954;28;20278;-64
2021/07/14 01:43:14;;;;;;;17.00;15.60;;;19.30;99.90;;;;;;5249245;28;20226;-66
2021/07/14 01:45:51;;;;;;;16.58;15.07;;;19.20;99.90;;;;;;5249098;28;20212;-64
2021/07/14 01:48:26;;;;;;;16.77;15.38;;;19.20;99.90;;;;;;5247740;28;20658;-63
2021/07/14 01:50:59;;;;;;;17.60;16.05;;;19.20;99.90;;;;;;5249459;28;20208;-65
2021/07/14 01:53:35;;;;;;;17.75;16.20;;;19.10;99.90;;;;;;5249406;28;20229;-66
2021/07/14 01:56:11;;;;;;;17.23;15.63;;;19.10;99.90;;;;;;5249356;28;20215;-64
2021/07/14 01:58:48;;;;;;;16.92;15.43;;;19.10;99.90;;;;;;5248875;28;20597;-64
2021/07/14 02:01:24;;;;;;;16.40;15.00;;;19.10;99.90;;;;;;5248197;28;20192;-65
2021/07/14 02:06:52;;;;;;;17.77;15.98;;;19.00;99.90;;;;;;5249360;28;20491;-66
2021/07/14 02:09:24;;;;;;;20.30;18.40;;;19.00;99.90;;;;;;5231740;28;20216;-65
2021/07/14 02:11:58;;;;;;;19.05;17.15;;;19.10;99.90;;;;;;5232787;28;20198;-65
2021/07/14 02:14:36;;;;;;;18.48;16.77;;;19.10;99.90;;;;;;5228210;28;20522;-70
2021/07/14 02:17:15;;;;;;;19.10;17.40;;;19.10;99.90;;;;;;5228160;28;20209;-67
2021/07/14 02:19:53;;;;;;;19.02;17.33;;;19.10;99.90;;;;;;5229341;28;20197;-65
2021/07/14 02:22:29;;;;;;;19.52;17.60;;;19.10;99.90;;;;;;5231046;28;20190;-65
2021/07/14 02:25:02;;;;;;;17.88;16.25;;;19.10;99.90;;;;;;5231914;28;20205;-68
2021/07/14 02:27:34;;;;;;;17.70;16.10;;;19.10;99.90;;;;;;5230944;28;20580;-63
2021/07/14 02:30:16;;;;;;;17.58;15.88;;;19.00;99.90;;;;;;5230492;28;20233;-66
2021/07/14 02:33:02;;;;;;;16.38;14.88;;;19.10;99.90;;;;;;5230379;28;20554;-64
2021/07/14 02:35:39;;;;;;;16.98;15.48;;;19.00;99.90;;;;;;5232122;28;20232;-66
2021/07/14 02:38:41;;;;;;;16.73;15.20;;;19.00;99.90;;;;;;5230641;28;20201;-68
2021/07/14 02:41:22;;;;;;;15.77;14.43;;;19.00;99.90;;;;;;5231921;28;20205;-65
2021/07/14 02:44:05;;;;;;;16.08;14.57;;;19.00;99.90;;;;;;5231405;28;20229;-65
2021/07/14 02:46:41;;;;;;;16.95;15.45;;;19.00;99.90;;;;;;5214359;28;20190;-64
2021/07/14 02:49:23;;;;;;;16.48;14.88;;;19.00;99.90;;;;;;5231255;28;20233;-67
2021/07/14 02:51:57;;;;;;;16.77;15.18;;;19.00;99.90;;;;;;5230719;28;20189;-66
2021/07/14 02:54:29;;;;;;;17.23;15.63;;;19.00;99.90;;;;;;5231253;28;20234;-67
2021/07/14 02:57:04;;;;;;;18.75;16.95;;;19.00;99.90;;;;;;5230413;28;20198;-66
2021/07/14 02:59:40;;;;;;;18.90;17.02;;;19.00;99.90;;;;;;5231494;28;20298;-67
2021/07/14 03:02:15;;;;;;;19.33;17.42;;;19.00;99.90;;;;;;5230651;28;20223;-69
2021/07/14 03:04:50;;;;;;;18.13;16.33;;;19.00;99.90;;;;;;5231222;28;20225;-68
2021/07/14 03:07:25;;;;;;;16.30;14.73;;;19.00;99.90;;;;;;5231242;28;20206;-64
2021/07/14 03:09:59;;;;;;;16.42;14.95;;;19.00;99.90;;;;;;5231022;28;20664;-64
2021/07/14 03:12:34;;;;;;;15.82;14.32;;;19.00;99.90;;;;;;5231195;28;20644;-65
2021/07/14 03:15:09;;;;;;;15.65;14.25;;;19.00;99.90;;;;;;5230787;28;20544;-66
2021/07/14 03:17:43;;;;;;;18.38;16.67;;;19.00;99.90;;;;;;5231050;28;20197;-68
2021/07/14 03:20:16;;;;;;;17.08;15.48;;;19.00;99.90;;;;;;5231252;28;20578;-68
2021/07/14 03:22:53;;;;;;;16.02;14.63;;;19.10;99.90;;;;;;5230908;28;20214;-66
2021/07/14 03:25:25;;;;;;;14.40;13.00;;;19.20;99.90;;;;;;5230969;28;20339;-66
2021/07/14 03:27:57;;;;;;;16.30;14.70;;;19.20;99.90;;;;;;5229710;28;20205;-66
2021/07/14 03:30:29;;;;;;;17.90;16.20;;;19.20;99.90;;;;;;5229759;28;20672;-67
2021/07/14 03:33:04;;;;;;;17.10;15.50;;;19.30;99.90;;;;;;5213094;28;20247;-69
2021/07/14 03:35:38;;;;;;;16.83;15.13;;;19.30;99.90;;;;;;5229358;28;20232;-68
2021/07/14 03:38:11;;;;;;;17.08;15.27;;;19.40;99.90;;;;;;5230777;28;20205;-73
2021/07/14 03:40:45;;;;;;;19.50;16.05;;;19.40;99.90;;;;;;5230742;28;20566;-67
2021/07/14 03:43:18;;;;;;;18.45;16.45;;;19.40;99.90;;;;;;5230736;28;20201;-66
2021/07/14 03:45:54;;;;;;;17.10;15.50;;;19.50;99.90;;;;;;5231070;28;20232;-64
2021/07/14 03:48:29;;;;;;;18.77;16.02;;;19.50;99.90;;;;;;5230505;28;20204;-67
2021/07/14 03:51:02;;;;;;;18.90;16.98;;;19.40;99.90;;;;;;5231312;28;20236;-65
2021/07/14 03:53:36;;;;;;;17.20;15.43;;;19.30;99.90;;;;;;5232030;28;20213;-66
2021/07/14 03:56:08;;;;;;;17.55;15.95;;;19.30;99.90;;;;;;5231501;28;20244;-68
2021/07/14 03:58:44;;;;;;;18.42;16.05;;;19.40;99.90;;;;;;5213751;28;20197;-67
2021/07/14 04:01:19;;;;;;;15.23;13.73;;;19.50;99.90;;;;;;5230371;28;20233;-69
2021/07/14 04:03:53;;;;;;;17.20;15.50;;;19.50;99.90;;;;;;5229803;28;20255;-71
2021/07/14 04:06:31;;;;;;;17.63;15.90;;;19.60;99.90;;;;;;5229086;28;20269;-68
2021/07/14 04:09:25;;;;;;;16.70;14.95;;;19.70;99.90;;;;;;5229960;28;20204;-69
2021/07/14 04:12:00;;;;;;;15.85;14.25;;;19.80;99.90;;;;;;5229875;28;20649;-68
2021/07/14 04:14:32;;;;;;;17.15;15.07;;;19.80;99.90;;;;;;5229743;28;20237;-69
2021/07/14 04:17:04;;;;;;;16.35;14.85;;;19.90;99.90;;;;;;5232315;28;20231;-69
2021/07/14 04:19:39;;;;;;;17.20;15.50;;;20.00;99.90;;;;;;5250228;28;20292;-67
2021/07/14 04:22:12;;;;;;;17.23;15.57;;;20.00;99.90;;;;;;5249033;28;20251;-69
2021/07/14 04:24:44;;;;;;;17.60;15.60;;;20.00;99.90;;;;;;5250267;28;20525;-67
2021/07/14 04:27:16;;;;;;;16.73;15.13;;;20.10;99.90;;;;;;5249185;28;20276;-66
2021/07/14 04:29:48;;;;;;;16.27;14.65;;;20.20;99.90;;;;;;5249087;28;20299;-69
2021/07/14 04:32:20;;;;;;;15.65;14.15;;;20.20;99.90;;;;;;5245006;28;20217;-69
2021/07/14 04:34:52;;;;;;;17.92;14.75;;;20.30;99.90;;;;;;5229018;28;20221;-67
2021/07/14 04:37:26;;;;;;;16.45;14.85;;;20.30;99.90;;;;;;5226504;28;20227;-67
2021/07/14 04:39:59;;;;;;;15.95;14.25;;;20.30;99.90;;;;;;5229503;28;20206;-70
2021/07/14 04:42:31;;;;;;;15.80;14.40;;;20.40;99.90;;;;;;5228985;28;20679;-70
2021/07/14 04:45:06;;;;;;;15.52;14.02;;;20.40;99.90;;;;;;5228367;28;20613;-68
2021/07/14 04:47:38;;;;;;;18.33;15.63;;;20.50;99.90;;;;;;5229512;28;20240;-67
2021/07/14 04:50:11;;;;;;;16.40;14.73;;;20.60;99.90;;;;;;5229386;28;20241;-66
2021/07/14 04:52:43;;;;;;;17.35;15.38;;;20.60;99.90;;;;;;5228894;28;20641;-68
2021/07/14 04:55:17;;;;;;;16.52;14.93;;;20.60;99.90;;;;;;5228931;28;20217;-69
2021/07/14 04:57:49;;;;;;;17.45;14.25;;;20.70;99.90;;;;;;5228037;28;20758;-66
2021/07/14 05:00:22;;;;;;;15.02;13.52;;;20.70;99.90;;;;;;5228881;28;20605;-70
2021/07/14 05:02:56;;;;;;;16.30;14.68;;;20.80;99.90;;;;;;5227588;28;20230;-68
2021/07/14 05:05:31;;;;;;;15.00;13.43;;;20.80;99.90;;;;;;5228203;28;20550;-69
2021/07/14 05:08:04;;;;;;;19.92;14.02;;;20.90;99.90;;;;;;5227806;28;20229;-69
2021/07/14 05:10:38;;;;;;;15.27;13.68;;;20.90;99.90;;;;;;5227790;28;20205;-68
2021/07/14 05:13:10;;;;;;;15.73;14.13;;;21.10;99.90;;;;;;5229086;28;20244;-64
2021/07/14 05:15:44;;;;;;;15.93;14.15;;;21.10;99.90;;;;;;5211096;28;20225;-66
2021/07/14 05:18:16;;;;;;;15.00;13.40;;;21.10;99.90;;;;;;5228363;28;20239;-66
2021/07/14 05:20:49;;;;;;;16.02;13.88;;;21.20;99.90;;;;;;5227568;28;20205;-66
2021/07/14 05:23:21;;;;;;;15.02;13.63;;;21.30;99.90;;;;;;5225370;28;20240;-64
2021/07/14 05:25:53;;;;;;;15.75;14.00;;;21.40;99.90;;;;;;5224919;28;20213;-68
2021/07/14 05:28:25;;;;;;;15.20;13.57;;;21.40;99.90;;;;;;5226856;28;20244;-68
2021/07/14 05:30:57;;;;;;;15.07;13.57;;;21.50;99.90;;;;;;5228271;28;20225;-71
2021/07/14 05:33:29;;;;;;;14.73;13.23;;;21.60;99.90;;;;;;5241170;28;20280;-67
2021/07/14 05:36:01;;;;;;;14.52;13.15;;;21.70;99.90;;;;;;5228074;28;20240;-70
2021/07/14 05:38:36;;;;;;;15.52;13.90;;;21.80;99.90;;;;;;5227555;28;20237;-67
2021/07/14 05:41:11;;;;;;;14.57;12.88;;;21.90;99.90;;;;;;5228540;28;20485;-67
2021/07/14 05:43:43;;;;;;;15.30;13.50;;;22.10;99.90;;;;;;5228454;28;20232;-68
2021/07/14 05:46:20;;;;;;;14.98;13.35;;;22.20;99.90;;;;;;5227036;28;20225;-69
2021/07/14 05:48:52;;;;;;;15.25;13.75;;;22.30;99.90;;;;;;5228311;28;20229;-68
2021/07/14 05:51:24;;;;;;;14.23;12.88;;;22.70;99.90;;;;;;5226933;28;20193;-67
2021/07/14 05:53:56;;;;;;;15.57;11.88;;;23.60;99.90;;;;;;5228195;28;20296;-68
2021/07/14 05:56:28;;;;;;;16.42;12.43;;;24.80;99.90;;;;;;5232079;28;20636;-67
2021/07/14 05:59:00;;;;;;;14.85;11.90;;;25.90;99.90;;;;;;5232453;28;20210;-69
2021/07/14 06:01:32;;;;;;;14.10;11.77;;;27.00;99.90;;;;;;5232783;28;20197;-66
2021/07/14 06:04:07;;;;;;;14.45;10.77;;;28.10;99.90;;;;;;5232305;28;20201;-68
2021/07/14 06:06:44;;;;;;;15.32;10.55;;;29.10;99.90;;;;;;5232530;28;20546;-67
2021/07/14 06:09:16;;;;;;;11.15;9.55;;;30.30;99.90;;;;;;5232002;28;20204;-68
2021/07/14 06:11:50;;;;;;;12.80;9.70;;;31.10;99.90;;;;;;5232288;28;20213;-68
2021/07/14 06:14:25;;;;;;;10.60;9.60;;;31.70;99.90;;;;;;5214638;28;20205;-68
2021/07/14 06:16:59;;;;;;;12.35;8.30;;;32.50;99.90;;;;;;5231747;28;20555;-65
2021/07/14 06:19:34;;;;;;;13.80;9.52;;;33.40;99.90;;;;;;5232615;28;20262;-70
2021/07/14 06:22:06;;;;;;;9.88;8.95;;;34.80;95.30;;;;;;5234119;28;20219;-65
2021/07/14 06:24:40;;;;;;;10.23;9.23;;;35.60;91.30;;;;;;5234344;28;20206;-70
2021/07/14 06:27:22;;;;;;;8.98;8.05;;;35.50;88.00;;;;;;5232478;28;20210;-41
2021/07/14 06:29:54;;;;;;;9.02;8.13;;;35.90;87.10;;;;;;5213856;28;20206;-42
2021/07/14 06:32:34;;;;;;;10.23;9.07;;;36.10;83.10;;;;;;5230525;28;20332;-36
2021/07/14 06:35:11;;;;;;;9.23;8.32;;;35.80;82.40;;;;;;5230721;28;20221;-68
2021/07/14 06:37:43;;;;;;;8.60;7.80;;;35.90;82.90;;;;;;5231346;28;20296;-61
2021/07/14 06:40:16;;;;;;;10.38;8.35;;;36.10;82.50;;;;;;5230001;28;20217;-57
2021/07/14 06:42:49;;;;;;;10.23;7.82;;;36.60;79.40;;;;;;5230833;28;20193;-61
2021/07/14 06:45:23;;;;;;;15.07;8.30;;;36.70;79.90;;;;;;5230951;28;20217;-64
2021/07/14 06:47:59;;;;;;;9.48;8.57;;;36.70;77.60;;;;;;5230634;28;20212;-63
2021/07/14 06:50:34;;;;;;;9.57;8.57;;;36.60;77.30;;;;;;5231172;28;20655;-63
2021/07/14 06:53:06;;;;;;;8.88;7.57;;;36.40;76.90;;;;;;5230757;28;20205;-61
2021/07/14 06:55:38;;;;;;;10.82;8.65;;;36.50;76.40;;;;;;5230582;28;20228;-64
2021/07/14 06:58:10;;;;;;;12.18;8.63;;;36.60;75.60;;;;;;5228304;28;20623;-58
2021/07/14 07:00:42;;;;;;;9.18;7.85;;;36.50;75.10;;;;;;5221714;28;20208;-64
2021/07/14 07:03:14;;;;;;;8.32;7.15;;;36.90;75.00;;;;;;5227024;28;20221;-68
2021/07/14 07:05:47;;;;;;;8.85;7.93;;;37.10;74.10;;;;;;5227799;28;20208;-38
2021/07/14 07:08:19;;;;;;;9.38;7.43;;;37.00;73.90;;;;;;5227771;28;20517;-43
2021/07/14 07:10:51;;;;;;;8.85;8.15;;;36.80;73.30;;;;;;5209697;28;20190;-42
2021/07/14 07:13:26;;;;;;;9.35;8.32;;;36.50;73.50;;;;;;5234852;28;20236;-46
2021/07/14 07:15:59;;;;;;;10.38;7.47;;;36.30;74.20;;;;;;5229924;28;20228;-37
2021/07/14 07:18:31;;;;;;;8.27;7.35;;;36.60;74.80;;;;;;5231247;28;20260;-68
2021/07/14 07:21:07;;;;;;;10.75;7.78;;;36.80;75.00;;;;;;5231024;28;20280;-68
2021/07/14 07:23:41;;;;;;;10.13;8.43;;;36.50;73.70;;;;;;5229973;28;20235;-68
2021/07/14 07:26:15;;;;;;;9.40;8.48;;;35.50;74.70;;;;;;5230944;28;20205;-71
2021/07/14 07:29:06;;;;;;;10.43;8.38;;;34.80;77.50;;;;;;5229632;28;20240;-68
2021/07/14 07:31:38;;;;;;;9.63;8.70;;;33.90;79.90;;;;;;5231010;28;20210;-70
2021/07/14 07:34:10;;;;;;;10.30;9.30;;;33.10;84.90;;;;;;5229418;28;20607;-70
2021/07/14 07:36:45;;;;;;;10.43;9.40;;;32.50;89.80;;;;;;5237009;28;20229;-70
2021/07/14 07:39:19;;;;;;;12.65;9.25;;;32.40;92.10;;;;;;5251016;28;20315;-70
2021/07/14 07:41:51;;;;;;;12.00;9.68;;;32.30;94.20;;;;;;5232837;28;20216;-74
2021/07/14 07:44:23;;;;;;;10.30;9.25;;;31.80;95.70;;;;;;5230673;28;20226;-71
2021/07/14 07:46:55;;;;;;;11.68;9.93;;;31.80;97.80;;;;;;5229585;28;20206;-70
2021/07/14 07:49:30;;;;;;;11.65;9.43;;;31.70;98.60;;;;;;5230475;28;20265;-70
2021/07/14 07:52:03;;;;;;;12.20;9.30;;;31.40;97.40;;;;;;5229629;28;20219;-68
2021/07/14 07:54:35;;;;;;;10.43;8.90;;;31.10;97.70;;;;;;5230783;28;20239;-68
2021/07/14 07:57:08;;;;;;;10.70;9.70;;;30.60;99.10;;;;;;5229081;28;20222;-70
2021/07/14 07:59:40;;;;;;;10.55;9.63;;;30.20;99.90;;;;;;5230042;28;20293;-71
2021/07/14 08:02:12;;;;;;;12.20;9.57;;;30.30;99.90;;;;;;5230327;28;20213;-72
2021/07/14 08:04:45;;;;;;;10.13;9.10;;;30.40;99.90;;;;;;5229394;28;20216;-71
2021/07/14 08:07:17;;;;;;;11.75;9.88;;;30.50;99.90;;;;;;5229256;28;20205;-71
2021/07/14 08:09:49;;;;;;;10.40;9.40;;;30.70;99.90;;;;;;5228857;28;20271;-71
2021/07/14 08:12:24;;;;;;;16.42;10.80;;;30.80;99.90;;;;;;5229899;28;20201;-70
2021/07/14 08:14:56;;;;;;;11.32;10.23;;;30.70;99.90;;;;;;5228829;28;20229;-71
2021/07/14 08:17:28;;;;;;;11.35;10.35;;;30.40;99.90;;;;;;5229257;28;20205;-53
2021/07/14 08:20:00;;;;;;;11.00;9.52;;;30.30;99.90;;;;;;5230127;28;20253;-46
2021/07/14 08:22:35;;;;;;;11.05;9.77;;;30.40;99.90;;;;;;5229871;28;20209;-48
2021/07/14 08:25:09;;;;;;;14.55;10.65;;;30.50;99.90;;;;;;5228580;28;20235;-47
2021/07/14 08:27:41;;;;;;;13.75;10.10;;;30.30;99.90;;;;;;5229804;28;20256;-50
2021/07/14 08:30:13;;;;;;;11.18;10.07;;;30.30;99.90;;;;;;5229743;28;20215;-48
2021/07/14 08:32:48;;;;;;;13.07;10.38;;;30.20;99.90;;;;;;5228094;28;20237;-53
2021/07/14 08:35:20;;;;;;;15.80;9.75;;;30.30;99.90;;;;;;5229253;28;20243;-51
2021/07/14 08:37:53;;;;;;;12.10;10.57;;;30.40;99.90;;;;;;5229620;28;20202;-51
2021/07/14 08:40:27;;;;;;;12.13;10.85;;;30.30;99.90;;;;;;5228217;28;20225;-51
2021/07/14 08:43:01;;;;;;;11.35;9.90;;;30.40;99.90;;;;;;5228421;28;20198;-57
2021/07/14 08:45:33;;;;;;;11.25;10.20;;;30.30;99.90;;;;;;5228487;28;20355;-48
2021/07/14 08:48:08;;;;;;;11.93;10.10;;;30.20;99.90;;;;;;5229215;28;20752;-52
2021/07/14 08:50:44;;;;;;;13.20;10.15;;;30.10;99.90;;;;;;5228167;28;20627;-49
2021/07/14 08:53:18;;;;;;;10.80;9.70;;;30.00;99.90;;;;;;5228231;28;20209;-46
2021/07/14 08:55:51;;;;;;;13.23;9.52;;;30.00;99.90;;;;;;5227900;28;20316;-54
2021/07/14 08:58:24;;;;;;;11.13;10.10;;;30.00;99.90;;;;;;5229721;28;20625;-54
2021/07/14 09:00:58;;;;;;;16.95;10.35;;;30.00;99.90;;;;;;5229217;28;20237;-51
2021/07/14 09:03:35;;;;;;;12.32;10.18;;;29.90;99.90;;;;;;5228346;28;20539;-52
2021/07/14 09:06:08;;;;;;;10.25;9.18;;;29.90;99.90;;;;;;5228681;28;20661;-53
2021/07/14 09:08:40;;;;;;;11.80;10.60;;;30.00;99.90;;;;;;5229110;28;20201;-48
2021/07/14 09:11:14;;;;;;;12.18;10.05;;;29.90;99.90;;;;;;5228129;28;20205;-72
2021/07/14 09:13:47;;;;;;;13.13;10.50;;;29.90;99.90;;;;;;5228006;28;20219;-74
2021/07/14 09:16:35;;;;;;;14.65;10.55;;;30.20;99.90;;;;;;5228374;28;20256;-73
2021/07/14 09:19:13;;;;;;;11.90;9.82;;;30.40;99.90;;;;;;5227602;28;20201;-72
2021/07/14 09:21:45;;;;;;;10.85;9.93;;;30.30;99.90;;;;;;5227892;28;20580;-73
2021/07/14 09:24:28;;;;;;;14.07;10.35;;;30.30;99.90;;;;;;5228470;28;20201;-72
2021/07/14 09:27:03;;;;;;;14.73;9.93;;;30.60;99.90;;;;;;5227859;28;20312;-73
2021/07/14 09:29:35;;;;;;;12.70;10.02;;;30.60;99.90;;;;;;5228611;28;20525;-73
2021/07/14 09:32:10;;;;;;;11.02;9.93;;;30.40;99.90;;;;;;5228314;28;20321;-75
2021/07/14 09:34:44;;;;;;;11.57;10.30;;;30.30;99.90;;;;;;5228486;28;20208;-72
2021/07/14 09:37:17;;;;;;;10.75;9.75;;;30.00;99.90;;;;;;5227338;28;20269;-71
2021/07/14 09:39:53;;;;;;;13.13;9.60;;;29.80;99.90;;;;;;5227610;28;20205;-70
2021/07/14 09:42:28;;;;;;;10.88;9.88;;;29.80;99.90;;;;;;5211295;28;20204;-71
2021/07/14 09:45:02;;;;;;;13.80;10.15;;;29.90;99.90;;;;;;5227500;28;20208;-73
2021/07/14 09:47:35;;;;;;;10.52;9.55;;;30.00;99.90;;;;;;5227806;28;20232;-70
2021/07/14 09:50:10;;;;;;;10.85;9.75;;;30.10;99.90;;;;;;5210948;28;20652;-71
2021/07/14 09:53:01;;;;;;;12.05;9.73;;;30.10;99.90;;;;;;5227540;28;20231;-68
2021/07/14 09:55:34;;;;;;;10.50;9.50;;;29.90;99.90;;;;;;5227654;28;20197;-74
2021/07/14 09:58:07;;;;;;;10.85;9.70;;;29.70;99.90;;;;;;5228466;28;20207;-72
2021/07/14 10:00:51;;;;;;;11.05;9.75;;;29.50;99.90;;;;;;5228876;28;20202;-73
2021/07/14 10:03:29;;;;;;;11.30;9.95;;;29.50;99.90;;;;;;5230768;28;20608;-73
2021/07/14 10:06:04;;;;;;;14.15;9.93;;;29.40;99.90;;;;;;5228415;28;20220;-74
2021/07/14 10:08:39;;;;;;;12.80;9.75;;;29.30;99.90;;;;;;5226943;28;20209;-72
2021/07/14 10:11:24;;;;;;;12.32;10.48;;;29.30;99.90;;;;;;5227047;28;20208;-71
2021/07/14 10:14:00;;;;;;;10.80;9.68;;;29.20;99.90;;;;;;5207539;28;20230;-74
2021/07/14 10:16:40;;;;;;;13.90;11.50;;;29.20;99.90;;;;;;5213303;28;20375;-72
2021/07/14 10:19:16;;;;;;;13.52;12.13;;;29.30;99.90;;;;;;5228368;28;20229;-73
2021/07/14 10:21:49;;;;;;;13.73;12.35;;;29.30;99.90;;;;;;5227752;28;20208;-72
2021/07/14 10:24:23;;;;;;;17.23;12.32;;;29.30;99.90;;;;;;5227031;28;20221;-72
2021/07/14 10:27:02;;;;;;;13.80;11.88;;;29.20;99.90;;;;;;5227680;28;20205;-73
2021/07/14 10:29:38;;;;;;;16.08;12.25;;;28.90;99.90;;;;;;5228014;28;20290;-72
2021/07/14 10:32:10;;;;;;;13.65;11.85;;;28.90;99.90;;;;;;5227224;28;20209;-73
2021/07/14 10:34:43;;;;;;;19.00;12.35;;;29.10;99.90;;;;;;5227884;28;20649;-74
2021/07/14 10:37:17;;;;;;;13.15;11.85;;;29.10;99.90;;;;;;5227292;28;20522;-72
2021/07/14 10:39:49;;;;;;;16.40;12.10;;;29.10;99.90;;;;;;5227156;28;20217;-72
2021/07/14 10:42:21;;;;;;;14.57;12.27;;;28.90;99.90;;;;;;5229834;28;20515;-73
2021/07/14 10:44:54;;;;;;;14.15;12.55;;;28.90;99.90;;;;;;5230402;28;20305;-71
2021/07/14 10:47:26;;;;;;;16.67;12.88;;;28.80;99.90;;;;;;5214407;28;20621;-71
2021/07/14 10:49:59;;;;;;;18.80;13.23;;;28.80;99.90;;;;;;5231535;28;20544;-72
2021/07/14 10:52:32;;;;;;;16.40;12.75;;;28.90;99.90;;;;;;5230351;28;20684;-72
2021/07/14 10:55:05;;;;;;;15.63;12.00;;;28.80;99.90;;;;;;5214563;28;20240;-72
2021/07/14 10:57:43;;;;;;;13.43;11.98;;;28.70;99.90;;;;;;5230698;28;20280;-74
2021/07/14 11:00:16;;;;;;;13.25;11.63;;;28.90;99.90;;;;;;5224927;28;20320;-78
2021/07/14 11:02:53;;;;;;;16.90;12.15;;;29.10;99.90;;;;;;5231321;28;20207;-78
2021/07/14 11:05:47;;;;;;;14.23;11.82;;;29.20;99.90;;;;;;5214841;28;20208;-76
2021/07/14 11:08:50;;;;;;;13.30;11.90;;;29.10;99.90;;;;;;5232690;28;20190;-73
2021/07/14 11:11:24;;;;;;;13.25;11.75;;;29.10;99.90;;;;;;5230369;28;20321;-74
2021/07/14 11:14:09;;;;;;;19.35;12.13;;;29.00;99.90;;;;;;5233628;28;20212;-71
2021/07/14 11:16:58;;;;;;;13.43;11.32;;;28.90;99.90;;;;;;5232379;28;20229;-76
2021/07/14 11:19:51;;;;;;;20.67;12.05;;;28.90;99.90;;;;;;5231127;28;20217;-65
2021/07/14 11:22:44;;;;;;;15.73;11.85;;;28.80;99.90;;;;;;5230759;28;20563;-64
2021/07/14 11:25:19;;;;;;;13.52;12.20;;;28.70;99.90;;;;;;5229644;28;20263;-49
2021/07/14 17:10:46;;;;;;;13.32;9.55;;;25.40;99.90;;;;;;5331485;27;20545;-68
2021/07/14 17:13:19;;;;;;;11.23;9.52;;;25.50;99.90;;;;;;5331254;27;20213;-64
2021/07/14 17:15:53;;;;;;;11.48;10.10;;;25.70;99.90;;;;;;5296118;27;20198;-66
2021/07/14 17:18:30;;;;;;;14.95;10.57;;;25.90;99.90;;;;;;5330897;27;20209;-64
2021/07/14 17:21:04;;;;;;;12.02;9.98;;;26.00;99.90;;;;;;5313034;27;20338;-65
2021/07/14 17:23:36;;;;;;;14.02;10.35;;;26.10;99.90;;;;;;5329961;27;20392;-65
2021/07/14 17:26:08;;;;;;;15.05;9.90;;;26.10;99.90;;;;;;5312201;27;20205;-67
2021/07/14 17:28:40;;;;;;;12.07;8.88;;;26.20;99.90;;;;;;5331016;27;20549;-64
2021/07/14 17:31:11;;;;;;;11.20;9.60;;;26.20;99.90;;;;;;5312483;27;20213;-63
2021/07/14 17:33:48;;;;;;;10.93;9.23;;;26.20;99.90;;;;;;5331072;27;20252;-65
2021/07/14 17:36:20;;;;;;;12.02;9.63;;;26.20;99.90;;;;;;5330556;27;20194;-65
2021/07/14 17:38:52;;;;;;;10.57;9.23;;;26.20;99.90;;;;;;5330550;27;20207;-58
2021/07/14 17:41:24;;;;;;;15.00;9.70;;;26.10;99.90;;;;;;5329514;27;20565;-64
2021/07/14 17:43:56;;;;;;;10.30;9.05;;;26.10;99.90;;;;;;5329687;27;20209;-65
2021/07/14 17:46:31;;;;;;;11.77;9.35;;;26.00;99.90;;;;;;5329675;27;20606;-67
2021/07/14 17:49:05;;;;;;;13.82;8.38;;;26.00;99.90;;;;;;5330657;27;20527;-63
2021/07/14 17:51:39;;;;;;;9.90;8.80;;;26.00;99.90;;;;;;5329563;27;20194;-63
2021/07/14 17:54:31;;;;;;;11.57;8.75;;;25.90;99.90;;;;;;5330834;27;20510;-64
2021/07/14 17:57:08;;;;;;;11.60;9.18;;;25.90;99.90;;;;;;5312413;27;20558;-64
2021/07/14 17:59:41;;;;;;;11.40;9.32;;;25.90;99.90;;;;;;5313502;27;20208;-64
2021/07/14 18:02:13;;;;;;;10.18;8.90;;;25.80;99.90;;;;;;5329250;27;20543;-63
2021/07/14 18:04:46;;;;;;;10.73;8.82;;;25.70;99.90;;;;;;5338568;27;20616;-62
2021/07/14 18:07:18;;;;;;;11.65;9.35;;;25.70;99.90;;;;;;5335942;27;20221;-66
2021/07/14 18:09:55;;;;;;;10.20;8.60;;;25.70;99.90;;;;;;5351024;27;20248;-67
2021/07/14 18:12:27;;;;;;;11.90;9.20;;;25.60;99.90;;;;;;5347972;27;20190;-64
2021/07/14 18:14:59;;;;;;;11.85;9.50;;;25.60;99.90;;;;;;5346887;27;20196;-66
2021/07/14 18:17:31;;;;;;;11.55;9.82;;;25.50;99.90;;;;;;5334502;27;20230;-64
2021/07/14 18:20:04;;;;;;;13.00;9.93;;;25.40;99.90;;;;;;5327420;27;20209;-62
2021/07/14 18:22:39;;;;;;;12.93;9.40;;;25.30;99.90;;;;;;5302441;27;20230;-61
2021/07/14 18:25:11;;;;;;;17.05;10.02;;;25.30;99.90;;;;;;5327568;27;20197;-66
2021/07/14 18:27:44;;;;;;;10.90;9.48;;;25.20;99.90;;;;;;5322037;27;20222;-66
2021/07/14 18:30:19;;;;;;;10.95;9.80;;;25.10;99.90;;;;;;5318442;27;20237;-64
2021/07/14 18:32:52;;;;;;;10.57;9.48;;;25.10;99.90;;;;;;5325593;27;20244;-63
2021/07/14 18:35:24;;;;;;;10.68;9.57;;;25.00;99.90;;;;;;5321113;27;20293;-63
2021/07/14 18:38:01;;;;;;;13.70;9.70;;;25.00;99.90;;;;;;5297939;27;20605;-67
2021/07/14 18:40:34;;;;;;;12.73;9.90;;;24.90;99.90;;;;;;5335958;27;20182;-66
2021/07/14 18:43:06;;;;;;;13.02;9.77;;;24.80;99.90;;;;;;5319665;27;20236;-65
2021/07/14 18:45:41;;;;;;;11.27;9.52;;;24.80;99.90;;;;;;5316379;27;20606;-63
2021/07/14 18:48:14;;;;;;;15.27;10.35;;;24.70;99.90;;;;;;5317001;27;20302;-63
2021/07/14 18:50:48;;;;;;;15.23;11.10;;;24.70;99.90;;;;;;5322170;27;20521;-65
2021/07/14 18:53:20;;;;;;;10.27;9.20;;;24.60;99.90;;;;;;5310701;27;20226;-63
2021/07/14 18:55:52;;;;;;;11.57;10.38;;;24.50;99.90;;;;;;5314469;27;20199;-66
2021/07/14 18:58:24;;;;;;;10.98;9.88;;;24.50;99.90;;;;;;5313301;27;20310;-65
2021/07/14 19:00:57;;;;;;;10.65;9.55;;;24.40;99.90;;;;;;5320970;27;20566;-63
2021/07/14 19:03:31;;;;;;;10.45;9.38;;;24.40;99.90;;;;;;5325976;27;20251;-68
2021/07/14 19:06:05;;;;;;;11.35;9.98;;;24.40;99.90;;;;;;5323452;27;20228;-66